Maastricht Aachen Airport

EHBK · Limburg, 荷兰

METAR的历史 EHBK · Maastricht Aachen Airport

下面你可以看到过去几天的METARs。 选择年份以浏览从2007年开始的旧METAR。

2022年12月8日

时间 代码 天气 温度 能见度 天花板 METAR/SPECI
07:55
I
3 °C 8 km 600 ft 240° 240° 8 kt METAR EHBK 080655Z AUTO 24008KT 200V280 8000 BKN006 OVC007 03/02 Q1009 TEMPO 4000 -SHRA FEW020CB
07:25
I
3 °C 9 km 700 ft 240° 240° 8 kt METAR EHBK 080625Z AUTO 24008KT 210V280 9000 BKN007 OVC008 03/02 Q1009 REDZ TEMPO 4000 -SHRA FEW020CB
06:55
I
3 °C 6 km 700 ft 250° 250° 7 kt METAR EHBK 080555Z AUTO 25007KT 210V290 6000 -RA BKN007 OVC008 03/02 Q1009 TEMPO 4000 -SHRA FEW020CB
06:25
I
3 °C 8 km 600 ft 240° 240° 8 kt METAR EHBK 080525Z AUTO 24008KT 200V280 8000 BKN006 OVC007 03/02 Q1009 TEMPO 4000 -SHRA FEW020CB
05:55
I
3 °C 8 km 700 ft 250° 250° 8 kt METAR EHBK 080455Z AUTO 25008KT 220V280 8000 BKN007 FEW015CB 03/02 Q1009 NOSIG
05:25
I
3 °C 8 km 600 ft 240° 240° 8 kt METAR EHBK 080425Z AUTO 24008KT 210V300 8000 BKN006 OVC008 03/02 Q1010
04:55
I
3 °C 7 km 600 ft 240° 240° 9 kt METAR EHBK 080355Z AUTO 24009KT 210V280 7000 BKN006 OVC007 03/02 Q1010
04:25
I
4 °C 7 km 600 ft 240° 240° 9 kt METAR EHBK 080325Z AUTO 24009KT 210V300 7000 SCT005 OVC006 04/03 Q1010 REDZ
03:55
L
4 °C 7 km 400 ft 240° 240° 8 kt METAR EHBK 080255Z AUTO 24008KT 210V280 7000 -DZ BKN004 OVC005 04/03 Q1010
03:25
I
4 °C 8 km 600 ft 240° 240° 7 kt METAR EHBK 080225Z AUTO 24007KT 210V280 8000 DZ SCT005 BKN006 OVC008 04/03 Q1011
02:55
I
4 °C 10 km+ 600 ft 240° 240° 8 kt METAR EHBK 080155Z AUTO 24008KT 210V280 9999 BKN006 BKN007 FEW015CB 04/02 Q1011
02:25
I
3 °C 10 km+ 700 ft 240° 240° 8 kt METAR EHBK 080125Z AUTO 24008KT 9999 BKN007 OVC008 03/02 Q1011
01:55
I
3 °C 10 km+ 500 ft 240° 240° 8 kt METAR EHBK 080055Z AUTO 24008KT 210V280 9999 BKN005 OVC006 03/03 Q1011
01:25
I
4 °C 9 km 500 ft 240° 240° 8 kt METAR EHBK 080025Z AUTO 24008KT 210V280 9000 BKN005/// OVC006/// 04/03 Q1011
00:55
L
4 °C 8 km 400 ft 240° 240° 7 kt METAR EHBK 072355Z AUTO 24007KT 210V270 8000 BKN004 OVC005 04/03 Q1012
00:25
L
4 °C 8 km 400 ft 240° 240° 6 kt METAR EHBK 072325Z AUTO 24006KT 210V280 8000 BKN004 OVC005 04/03 Q1012

2022年12月7日

时间 代码 天气 温度 能见度 天花板 METAR/SPECI
23:55
I
4 °C 8 km 500 ft 250° 250° 6 kt METAR EHBK 072255Z AUTO 25006KT 210V290 8000 SCT004 BKN005 OVC006 04/03 Q1012
23:25
I
4 °C 8 km 600 ft 250° 250° 5 kt METAR EHBK 072225Z AUTO 25005KT 220V280 8000 FEW004 SCT005 BKN006 04/03 Q1013
22:55
I
4 °C 9 km 700 ft 240° 240° 6 kt METAR EHBK 072155Z AUTO 24006KT 210V280 9000 -DZ FEW004 SCT005 BKN007 04/03 Q1013
22:25
I
4 °C 9 km 700 ft 240° 240° 6 kt METAR EHBK 072125Z AUTO 24006KT 210V270 9000 SCT005 BKN007 OVC008 04/03 Q1013 TEMPO 7000
21:55
I
4 °C 8 km 600 ft 240° 240° 7 kt METAR EHBK 072055Z AUTO 24007KT 8000 -DZ FEW005 BKN006 BKN008 04/03 Q1013 TEMPO BKN006
21:25
I
4 °C 10 km+ 600 ft 240° 240° 6 kt METAR EHBK 072025Z AUTO 24006KT 210V280 9999 FEW004 SCT005 BKN006 04/03 Q1013 NOSIG
20:55
I
4 °C 10 km+ 600 ft 230° 230° 5 kt METAR EHBK 071955Z AUTO 23005KT 9999 FEW004 BKN006 BKN007 04/03 Q1014 BECMG BKN040
20:25
V
4 °C 10 km+ 3.700 ft 240° 240° 5 kt METAR EHBK 071925Z AUTO 24005KT 220V300 9999 FEW006 SCT033 BKN037 04/03 Q1014 NOSIG
19:55
V
4 °C 10 km+ - 240° 240° 6 kt METAR EHBK 071855Z AUTO 24006KT 9999 FEW006 SCT049 04/03 Q1014 NOSIG
19:25
V
4 °C 10 km+ - 240° 240° 5 kt METAR EHBK 071825Z AUTO 24005KT 210V280 9999 NSC 04/03 Q1014 NOSIG
18:55
V
4 °C 10 km+ - 250° 250° 5 kt METAR EHBK 071755Z AUTO 25005KT 210V280 9999 NSC 04/03 Q1014 NOSIG
18:25
V
4 °C 10 km+ - 250° 250° 4 kt METAR EHBK 071725Z AUTO 25004KT 210V290 9999 SCT031 SCT045 04/03 Q1014 NOSIG
17:55
V
4 °C 10 km+ 3.900 ft 250° 250° 5 kt METAR EHBK 071655Z AUTO 25005KT 220V290 9999 FEW010 BKN039 04/03 Q1014 NOSIG
17:25
V
5 °C 10 km+ 3.600 ft 240° 240° 5 kt METAR EHBK 071625Z AUTO 24005KT 210V270 9999 SCT024 OVC036 05/03 Q1015 TEMPO BKN012
16:55
V
4 °C 10 km+ - 240° 240° 5 kt METAR EHBK 071555Z AUTO 24005KT 210V270 9999 FEW013 04/03 Q1015 TEMPO BKN012
16:25
V
4 °C 10 km+ - 250° 250° 3 kt METAR EHBK 071525Z AUTO 25003KT 220V310 9999 NSC 04/03 Q1015 TEMPO BKN012
15:55
V
5 °C 10 km+ 4.300 ft 260° 260° 4 kt METAR EHBK 071455Z AUTO 26004KT 220V300 9999 FEW010 BKN043 05/03 Q1015 TEMPO BKN012
15:25
M
5 °C 10 km+ 1.300 ft 270° 270° 5 kt METAR EHBK 071425Z AUTO 27005KT 220V310 9999 BKN013 OVC016 05/04 Q1015 NOSIG
14:55
M
6 °C 10 km+ 1.000 ft 260° 260° 4 kt METAR EHBK 071355Z AUTO 26004KT 220V290 9999 SCT009 BKN010 OVC014 06/04 Q1016 TEMPO BKN012
14:25
M
6 °C 10 km+ 1.000 ft 250° 250° 4 kt METAR EHBK 071325Z AUTO 25004KT 220V290 9999 FEW009 BKN010 OVC013 06/04 Q1016 TEMPO BKN012
13:55
I
5 °C 10 km+ 900 ft 240° 240° 6 kt METAR EHBK 071255Z AUTO 24006KT 210V270 9999 FEW008 BKN009 OVC010 05/04 Q1016 TEMPO BKN012
13:25
I
5 °C 10 km+ 900 ft 240° 240° 7 kt METAR EHBK 071225Z AUTO 24007KT 210V270 9999 SCT007 BKN009 OVC011 05/04 Q1016 TEMPO BKN020
12:55
V
5 °C 10 km+ - 240° 240° 7 kt METAR EHBK 071155Z AUTO 24007KT 200V270 9999 SCT022 05/04 Q1017 TEMPO 7000
12:25
V
5 °C 9 km - 230° 230° 7 kt METAR EHBK 071125Z AUTO 23007KT 210V270 9000 FEW038 05/04 Q1017 BECMG 9999
11:55
I
4 °C 4,6 km 3.600 ft 230° 230° 6 kt METAR EHBK 071055Z AUTO 23006KT 4600 BR FEW002 SCT028 BKN036 04/03 Q1017 BECMG 9999 BKN006
11:25
L
4 °C 4,8 km 200 ft 240° 240° 6 kt METAR EHBK 071025Z AUTO 24006KT 4800 BR SCT001 BKN002 BKN006 04/04 Q1017 BECMG 7000 NSW BKN006
10:55
L
4 °C 2,4 km 100 ft 250° 250° 6 kt METAR EHBK 070955Z AUTO 25006KT 210V280 2400 BR BKN001 OVC002 04/04 Q1018 BECMG 4000 BR BKN003
10:25
L
4 °C 900 m 100 ft 240° 240° 7 kt METAR EHBK 070925Z AUTO 24007KT 150V270 0900 R21/1100U FG VV001 04/03 Q1018 BECMG 2000 BR BKN003
09:55
L
3 °C 700 m 100 ft 240° 240° 7 kt METAR EHBK 070855Z AUTO 24007KT 0700 R21/1000D FG BKN001 OVC002 03/03 Q1018 BECMG 2000 BR BKN003
09:25
L
3 °C 600 m 100 ft 240° 240° 6 kt METAR EHBK 070825Z AUTO 24006KT 0600 R21/1000D FG VV001 03/03 Q1018 BECMG 2000 BR BKN003
08:55
L
3 °C 1,3 km 100 ft 240° 240° 6 kt METAR EHBK 070755Z AUTO 24006KT 220V280 1300 R21/1900N BR SCT000 BKN001 BKN002 03/03 Q1017 NOSIG
08:25
M
4 °C 5 km 4.700 ft 250° 250° 5 kt METAR EHBK 070725Z AUTO 25005KT 220V280 5000 FEW002 SCT037 OVC047 04/03 Q1017 REDZ BECMG 7000
07:55
L
4 °C 2,3 km 100 ft 260° 260° 5 kt METAR EHBK 070655Z AUTO 26005KT 220V310 2300 -RADZ BKN001 OVC002 04/03 Q1017 NOSIG
07:25
L
4 °C 2,7 km 100 ft 250° 250° 5 kt METAR EHBK 070625Z AUTO 25005KT 220V280 2700 BR SCT000 BKN001 OVC002 04/03 Q1017 NOSIG
06:55
L
4 °C 3,9 km 100 ft 250° 250° 4 kt METAR EHBK 070555Z AUTO 25004KT 220V290 3900 BR BKN001 OVC002 04/03 Q1017 NOSIG
06:25
L
3 °C 4,4 km 200 ft 260° 260° 5 kt METAR EHBK 070525Z AUTO 26005KT 220V300 4400 BR FEW001 BKN002 BKN003 03/03 Q1017 NOSIG
05:55
L
4 °C 3,4 km 300 ft 260° 260° 5 kt METAR EHBK 070455Z AUTO 26005KT 230V290 3400 BR FEW001 BKN003 OVC004 04/03 Q1017 NOSIG
05:25
L
4 °C 3,5 km 300 ft 250° 250° 5 kt METAR EHBK 070425Z AUTO 25005KT 220V280 3500 BR FEW002 BKN003 OVC004 04/04 Q1017 REDZ
04:55
L
4 °C 3,4 km 200 ft 260° 260° 5 kt METAR EHBK 070355Z AUTO 26005KT 230V290 3400 BR OVC002 04/04 Q1017
04:25
L
4 °C 3,5 km 200 ft 260° 260° 5 kt METAR EHBK 070325Z AUTO 26005KT 230V310 3500 BR OVC002 04/04 Q1018
03:55
L
4 °C 3,7 km 200 ft 260° 260° 6 kt METAR EHBK 070255Z AUTO 26006KT 230V300 3700 BR BKN002 OVC003 04/03 Q1017
03:25
L
4 °C 3,9 km 300 ft 250° 250° 6 kt METAR EHBK 070225Z AUTO 25006KT 220V290 3900 BR OVC003 04/04 Q1018
02:55
L
4 °C 4,5 km 300 ft 270° 270° 5 kt METAR EHBK 070155Z AUTO 27005KT 230V300 4500 BR OVC003 04/04 Q1018
02:25
L
4 °C 4,1 km 200 ft 260° 260° 6 kt METAR EHBK 070125Z AUTO 26006KT 220V290 4100 BR OVC002 04/03 Q1018
01:55
L
4 °C 5 km 300 ft 250° 250° 7 kt METAR EHBK 070055Z AUTO 25007KT 220V280 5000 OVC003 04/03 Q1018
01:25
L
4 °C 7 km 400 ft 250° 250° 6 kt METAR EHBK 070025Z AUTO 25006KT 210V280 7000 FEW003 BKN004 BKN005 FEW015CB 04/03 Q1018
00:55
I
4 °C 7 km 500 ft 240° 240° 6 kt METAR EHBK 062355Z AUTO 24006KT 210V270 7000 FEW004 BKN005 BKN006 FEW015CB 04/03 Q1018
00:25
M
4 °C 7 km 2.600 ft 240° 240° 6 kt METAR EHBK 062325Z AUTO 24006KT 7000 FEW004 SCT007 BKN026 04/03 Q1018

2022年12月6日

时间 代码 天气 温度 能见度 天花板 METAR/SPECI
23:55
V
4 °C 9 km 3.400 ft 240° 240° 4 kt METAR EHBK 062255Z AUTO 24004KT 210V280 9000 FEW004 SCT005 BKN034 04/03 Q1018
23:25
I
4 °C 10 km+ 500 ft 240° 240° 5 kt METAR EHBK 062225Z AUTO 24005KT 9999 BKN005 OVC007 04/03 Q1018
22:55
I
4 °C 10 km+ 700 ft 240° 240° 5 kt METAR EHBK 062155Z AUTO 24005KT 210V280 9999 SCT006 BKN007 OVC009 04/03 Q1018
22:25
M
4 °C 10 km+ 2.800 ft 230° 230° 7 kt METAR EHBK 062125Z AUTO 23007KT 9999 FEW008 BKN028 OVC032 04/03 Q1018 TEMPO BKN008
21:55
M
4 °C 10 km+ 2.200 ft 240° 240° 6 kt METAR EHBK 062055Z AUTO 24006KT 9999 BKN022 OVC026 04/03 Q1018 BECMG BKN008
21:25
M
4 °C 10 km+ 1.100 ft 230° 230° 7 kt METAR EHBK 062025Z AUTO 23007KT 9999 OVC011 04/03 Q1018 NOSIG
20:55
M
5 °C 10 km+ 1.800 ft 230° 230° 6 kt METAR EHBK 061955Z AUTO 23006KT 9999 FEW015 OVC018 05/03 Q1018 NOSIG
20:25
M
4 °C 10 km+ 1.800 ft 230° 230° 6 kt METAR EHBK 061925Z AUTO 23006KT 9999 OVC018 04/03 Q1019 NOSIG
19:55
M
4 °C 10 km+ 2.700 ft 230° 230° 6 kt METAR EHBK 061855Z AUTO 23006KT 9999 OVC027/// 04/03 Q1019 NOSIG
19:25
V
4 °C 10 km+ 3.100 ft 230° 230° 5 kt METAR EHBK 061825Z AUTO 23005KT 9999 BKN031 OVC035 04/03 Q1019 NOSIG
18:55
V
4 °C 10 km+ 3.000 ft 230° 230° 6 kt METAR EHBK 061755Z AUTO 23006KT 9999 OVC030 04/03 Q1019 NOSIG
18:25
V
4 °C 10 km+ 3.500 ft 210° 210° 5 kt METAR EHBK 061725Z AUTO 21005KT 9999 SCT031 OVC035 04/03 Q1019 NOSIG
17:55
M
4 °C 10 km+ 2.900 ft 230° 230° 4 kt METAR EHBK 061655Z AUTO 23004KT 9999 OVC029 04/03 Q1019 NOSIG
17:25
V
4 °C 10 km+ 3.500 ft 240° 240° 3 kt METAR EHBK 061625Z AUTO 24003KT 9999 OVC035 04/02 Q1019 NOSIG
16:55
V
4 °C 10 km+ 4.100 ft 260° 260° 3 kt METAR EHBK 061555Z AUTO 26003KT 220V290 9999 OVC041/// 04/02 Q1019 NOSIG
16:25
V
4 °C 10 km+ 4.000 ft Var Var 2 kt METAR EHBK 061525Z AUTO VRB02KT 9999 FEW021/// OVC040/// 04/03 Q1019 NOSIG
15:55
V
5 °C 10 km+ 4.100 ft 280° 280° 3 kt METAR EHBK 061455Z AUTO 28003KT 250V330 9999 OVC041 05/03 Q1019 NOSIG
15:25
V
5 °C 10 km+ - 290° 290° 3 kt METAR EHBK 061425Z AUTO 29003KT 260V320 9999 FEW014 05/02 Q1019 NOSIG
14:55
V
5 °C 10 km+ - 290° 290° 4 kt METAR EHBK 061355Z AUTO 29004KT 230V320 9999 FEW048 05/03 Q1019 NOSIG
14:25
V
5 °C 10 km+ - 310° 310° 4 kt METAR EHBK 061325Z AUTO 31004KT 260V350 9999 NCD 05/03 Q1019 NOSIG
13:55
M
6 °C 10 km+ 1.600 ft 330° 330° 4 kt METAR EHBK 061255Z AUTO 33004KT 270V360 9999 FEW010 BKN016 BKN027 06/03 Q1019 NOSIG
13:25
M
6 °C 10 km+ 1.000 ft 310° 310° 5 kt METAR EHBK 061225Z AUTO 31005KT 280V360 9999 FEW009 BKN010 BKN013 06/04 Q1019 TEMPO BKN040
12:55
I
6 °C 10 km+ 800 ft 300° 300° 3 kt METAR EHBK 061155Z AUTO 30003KT 260V350 9999 FEW007 BKN008 BKN043 06/04 Q1019 TEMPO SCT007 BKN040
12:25
I
5 °C 10 km+ 800 ft 320° 320° 4 kt METAR EHBK 061125Z AUTO 32004KT 290V350 9999 SCT006 BKN008 BKN009 05/04 Q1020 TEMPO SCT007 BKN040
11:55
I
5 °C 10 km+ 800 ft 330° 330° 4 kt METAR EHBK 061055Z AUTO 33004KT 290V360 9999 FEW005 SCT006 BKN008 05/04 Q1020 REDZ TEMPO SCT007 BKN040
11:25
I
5 °C 10 km+ 600 ft 340° 340° 6 kt METAR EHBK 061025Z AUTO 34006KT 310V010 9999 FEW003 SCT005 BKN006 05/04 Q1020 TEMPO SCT007 BKN040
10:55
I
5 °C 8 km 500 ft 330° 330° 5 kt METAR EHBK 060955Z AUTO 33005KT 280V360 8000 FEW002 SCT004 BKN005 05/04 Q1020 TEMPO SCT007 BKN040
10:25
L
4 °C 4,8 km 100 ft 330° 330° 5 kt METAR EHBK 060925Z AUTO 33005KT 270V360 4800 BKN000 OVC001 04/04 Q1020 TEMPO 6000 NSW SCT003 BKN040
09:55
L
4 °C 3,4 km 100 ft 320° 320° 4 kt METAR EHBK 060855Z AUTO 32004KT 290V350 3400 BR BKN001 OVC002 04/04 Q1019 TEMPO 1600 BKN003
09:25
L
4 °C 1 km 200 ft 300° 300° 3 kt METAR EHBK 060825Z AUTO 30003KT 270V340 1000 R21/1300N BR BKN000 OVC002 04/04 Q1019 TEMPO 1600 BR BKN003
08:55
L
3 °C 1,1 km 100 ft Var Var 2 kt METAR EHBK 060755Z AUTO VRB02KT 1100 R21/1700U -DZ OVC001 03/03 Q1019 REDZ TEMPO 0900 FG BKN002
08:25
L
3 °C 1,3 km - Var Var 1 kt METAR EHBK 060725Z AUTO VRB01KT 1300 R21/1900U BR OVC000 03/03 Q1019 REDZ TEMPO 0900 FG BKN002
07:55
L
3 °C 800 m - Var Var 2 kt METAR EHBK 060655Z AUTO VRB02KT 0800 R21/1200N DZ VV000 03/03 Q1019 TEMPO BKN002
07:25
L
3 °C 550 m - Var Var 2 kt METAR EHBK 060625Z AUTO VRB02KT 0550 R21/0800N DZ VV000 03/03 Q1019 TEMPO 0900 FG BKN002
06:55
L
3 °C 1,2 km 100 ft Var Var 2 kt METAR EHBK 060555Z AUTO VRB02KT 1200 R21/1800N BR OVC001 03/03 Q1019 TEMPO 0900 FG BKN002
06:25
L
3 °C 600 m 100 ft 210° 210° 3 kt METAR EHBK 060525Z AUTO 21003KT 190V250 0600 R21/0900N FG BKN000 OVC001 03/02 Q1019 NOSIG
05:55
L
2 °C 450 m - 210° 210° 4 kt METAR EHBK 060455Z AUTO 21004KT 0450 R21/0650N FG VV000 02/02 Q1019
05:25
L
2 °C 550 m - 230° 230° 3 kt METAR EHBK 060425Z AUTO 23003KT 0550 R21/0800N FG VV000 02/02 Q1019
04:55
L
2 °C 400 m - 210° 210° 4 kt METAR EHBK 060355Z AUTO 21004KT 0400 R21/0600N FG VV000 02/02 Q1019
04:25
L
2 °C 800 m - 230° 230° 3 kt METAR EHBK 060325Z AUTO 23003KT 0800 R21/1200D FG VV000 02/02 Q1019
03:55
L
2 °C 750 m - 220° 220° 3 kt METAR EHBK 060255Z AUTO 22003KT 0750 R21/1000N DZRA VV000 02/02 Q1019
03:25
L
2 °C 800 m - 230° 230° 4 kt METAR EHBK 060225Z AUTO 23004KT 0800 R21/1200U -RADZ VV000 02/02 Q1019
02:55
L
2 °C 650 m - 230° 230° 5 kt METAR EHBK 060155Z AUTO 23005KT 0650 R21/0900N -RA VV000 02/02 Q1020
02:25
L
2 °C 550 m - 230° 230° 5 kt METAR EHBK 060125Z AUTO 23005KT 0550 R21/0750N FG VV000 02/02 Q1020
01:55
L
2 °C 600 m - 220° 220° 6 kt METAR EHBK 060055Z AUTO 22006KT 0600 R21/0900N FG VV000 02/02 Q1020
01:25
L
2 °C 800 m - 220° 220° 7 kt METAR EHBK 060025Z AUTO 22007KT 0800 R21/1100N FG VV000 02/02 Q1020
00:25
L
1 °C 700 m - 210° 210° 6 kt METAR EHBK 052325Z AUTO 21006KT 0700 R21/1100N FG VV000 01/01 Q1020

2022年12月5日

时间 代码 天气 温度 能见度 天花板 METAR/SPECI
23:55
L
1 °C 700 m - 210° 210° 6 kt METAR EHBK 052255Z AUTO 21006KT 0700 R21/1000N FG VV000 01/01 Q1020
23:25
L
1 °C 1 km - 220° 220° 6 kt METAR EHBK 052225Z AUTO 22006KT 1000 R21/1500N BR OVC000 01/01 Q1020
22:55
L
1 °C 800 m - 210° 210° 6 kt METAR EHBK 052155Z AUTO 21006KT 0800 R21/1200N FG VV000 01/01 Q1020
22:25
L
1 °C 1,1 km - 210° 210° 5 kt METAR EHBK 052125Z AUTO 21005KT 1100 R21/1600D BR OVC000 01/01 Q1020 TEMPO 2500
21:55
I
1 °C 1,5 km - 210° 210° 6 kt METAR EHBK 052055Z AUTO 21006KT 1500 -DZ OVC000 01/01 Q1020 REDZ TEMPO 2500
21:25
I
1 °C 1,5 km - 210° 210° 5 kt METAR EHBK 052025Z AUTO 21005KT 1500 DZ OVC000 01/00 Q1020 TEMPO 2500
20:55
L
1 °C 1,3 km - 210° 210° 5 kt METAR EHBK 051955Z AUTO 21005KT 1300 R21/1900N -DZ OVC000 01/00 Q1020 TEMPO 2500
20:25
L
0 °C 900 m - 210° 210° 6 kt METAR EHBK 051925Z AUTO 21006KT 0900 R21/1300N -RA VV000 00/00 Q1020 TEMPO 2500
19:55
L
0 °C 900 m - 210° 210° 5 kt METAR EHBK 051855Z AUTO 21005KT 0900 R21/1300D -RA BKN000 FEW015CB 00/00 Q1020 TEMPO 2500
19:25
L
0 °C 2,2 km 100 ft 220° 220° 4 kt METAR EHBK 051825Z AUTO 22004KT 2200 -SN BKN001 FEW015CB 00/00 Q1020 TEMPO 1200
18:55
L
0 °C 2,1 km 100 ft 230° 230° 4 kt METAR EHBK 051755Z AUTO 23004KT 2100 -SN BKN001 FEW015CB 00/00 Q1020 TEMPO 1200
18:25
L
0 °C 2,2 km 100 ft 230° 230° 4 kt METAR EHBK 051725Z AUTO 23004KT 2200 -SN OVC001 00/00 Q1019 TEMPO 1200
17:55
L
0 °C 2,8 km 100 ft 240° 240° 4 kt METAR EHBK 051655Z AUTO 24004KT 210V270 2800 -SNRA BKN000 BKN001 OVC002 00/00 Q1019 TEMPO BKN001
17:25
L
0 °C 1,9 km 100 ft 240° 240° 3 kt METAR EHBK 051625Z AUTO 24003KT 1900 -SN OVC001 00/00 Q1019 TEMPO 0800 SN
16:55
L
0 °C 1,6 km 100 ft 250° 250° 3 kt METAR EHBK 051555Z AUTO 25003KT 220V290 1600 -SN OVC001 00/00 Q1019 TEMPO 0800 SN
16:25
I
0 °C 1,9 km - 270° 270° 3 kt METAR EHBK 051525Z AUTO 27003KT 230V310 1900 -SN OVC000 00/00 Q1019 TEMPO 0800 SN
15:55
L
0 °C 1,2 km 100 ft 270° 270° 3 kt METAR EHBK 051455Z AUTO 27003KT 230V320 1200 R21/1400U -SN OVC001 00/00 Q1019 TEMPO BKN004
15:25
L
1 °C 1,7 km 100 ft Var Var 2 kt METAR EHBK 051425Z AUTO VRB02KT 1700 -SNRA OVC001 01/00 Q1019 TEMPO BKN004
14:55
L
1 °C 1,8 km 100 ft 240° 240° 2 kt METAR EHBK 051355Z AUTO 24002KT 1800 -SN FEW000 BKN001 BKN006 01/00 Q1019 TEMPO BKN004
14:25
L
1 °C 2,2 km 100 ft 260° 260° 2 kt METAR EHBK 051325Z AUTO 26002KT 2200 -SN BKN001 OVC002 01/00 Q1018 TEMPO BKN004
13:55
L
1 °C 2,8 km 100 ft Var Var 2 kt METAR EHBK 051255Z AUTO VRB02KT 2800 -SNRA OVC001 01/01 Q1018 TEMPO BKN004
13:25
L
1 °C 1,4 km 100 ft Var Var 2 kt METAR EHBK 051225Z AUTO VRB02KT 1400 R21/1600N -SNRA OVC001 01/01 Q1018 TEMPO BKN004
12:55
L
1 °C 1,8 km 100 ft Var Var 2 kt METAR EHBK 051155Z AUTO VRB02KT 1800 -RASN OVC001 01/01 Q1018 TEMPO BKN004
12:25
L
1 °C 1,2 km 100 ft 330° 330° 3 kt METAR EHBK 051125Z AUTO 33003KT 1200 R21/1400N -SN OVC001 01/00 Q1019 TEMPO BKN004
11:55
L
1 °C 1,4 km 100 ft 320° 320° 2 kt METAR EHBK 051055Z AUTO 32002KT 1400 R21/1400N -SN OVC001 01/00 Q1019 TEMPO BKN004
11:25
L
1 °C 1,8 km 100 ft 320° 320° 1 kt METAR EHBK 051025Z AUTO 32001KT 1800 -SN BKN001 OVC002 01/00 Q1018 TEMPO BKN004
10:55
L
1 °C 1,9 km 100 ft Var Var 2 kt METAR EHBK 050955Z AUTO VRB02KT 1900 -SNRA BKN001 OVC013 01/00 Q1019 TEMPO BKN004

我们和第三方通过cookies跟踪您在我们网站上的互联网行为。如果你继续,我们认为你同意我们的饼干政策